sensor_id;sensor_type;location;lat;lon;timestamp;temperature;humidity
62154;DHT22;48140;45.486;9.226;2024-01-15T00:00:23;3.00;99.90
62154;DHT22;48140;45.486;9.226;2024-01-15T00:02:48;3.10;99.90
62154;DHT22;48140;45.486;9.226;2024-01-15T00:05:14;3.10;99.90
62154;DHT22;48140;45.486;9.226;2024-01-15T00:07:40;3.10;99.90
62154;DHT22;48140;45.486;9.226;2024-01-15T00:10:05;3.10;99.90
62154;DHT22;48140;45.486;9.226;2024-01-15T00:12:31;3.10;99.90
62154;DHT22;48140;45.486;9.226;2024-01-15T00:14:56;3.10;99.90
62154;DHT22;48140;45.486;9.226;2024-01-15T00:17:22;3.10;99.90
62154;DHT22;48140;45.486;9.226;2024-01-15T00:19:47;3.00;99.90
62154;DHT22;48140;45.486;9.226;2024-01-15T00:22:13;2.90;99.90
62154;DHT22;48140;45.486;9.226;2024-01-15T00:24:38;3.00;99.90
62154;DHT22;48140;45.486;9.226;2024-01-15T00:27:04;2.90;99.90
62154;DHT22;48140;45.486;9.226;2024-01-15T00:29:29;2.90;99.90
62154;DHT22;48140;45.486;9.226;2024-01-15T00:31:55;2.90;99.90
62154;DHT22;48140;45.486;9.226;2024-01-15T00:34:20;2.90;99.90
62154;DHT22;48140;45.486;9.226;2024-01-15T00:36:46;2.90;99.90
62154;DHT22;48140;45.486;9.226;2024-01-15T00:39:12;3.00;99.90
62154;DHT22;48140;45.486;9.226;2024-01-15T00:41:37;2.80;99.90
62154;DHT22;48140;45.486;9.226;2024-01-15T00:44:03;2.80;99.90
62154;DHT22;48140;45.486;9.226;2024-01-15T00:46:28;2.90;99.90
62154;DHT22;48140;45.486;9.226;2024-01-15T00:48:54;3.00;99.90
62154;DHT22;48140;45.486;9.226;2024-01-15T00:51:19;2.90;99.90
62154;DHT22;48140;45.486;9.226;2024-01-15T00:53:45;3.00;99.90
62154;DHT22;48140;45.486;9.226;2024-01-15T00:56:10;2.90;99.90
62154;DHT22;48140;45.486;9.226;2024-01-15T00:58:36;3.10;99.90
62154;DHT22;48140;45.486;9.226;2024-01-15T01:01:02;3.00;99.90
62154;DHT22;48140;45.486;9.226;2024-01-15T01:03:28;3.00;99.90
62154;DHT22;48140;45.486;9.226;2024-01-15T01:05:54;3.00;99.90
62154;DHT22;48140;45.486;9.226;2024-01-15T01:08:19;3.00;99.90
62154;DHT22;48140;45.486;9.226;2024-01-15T01:10:44;3.10;99.90
62154;DHT22;48140;45.486;9.226;2024-01-15T01:13:10;3.10;99.90
62154;DHT22;48140;45.486;9.226;2024-01-15T01:15:36;3.00;99.90
62154;DHT22;48140;45.486;9.226;2024-01-15T01:18:02;3.10;99.90
62154;DHT22;48140;45.486;9.226;2024-01-15T01:20:28;3.10;99.90
62154;DHT22;48140;45.486;9.226;2024-01-15T01:22:53;3.10;99.90
62154;DHT22;48140;45.486;9.226;2024-01-15T01:25:19;3.00;99.90
62154;DHT22;48140;45.486;9.226;2024-01-15T01:27:44;3.00;99.90
62154;DHT22;48140;45.486;9.226;2024-01-15T01:30:10;3.10;99.90
62154;DHT22;48140;45.486;9.226;2024-01-15T01:32:35;3.20;99.90
62154;DHT22;48140;45.486;9.226;2024-01-15T01:35:03;3.20;99.90
62154;DHT22;48140;45.486;9.226;2024-01-15T01:37:29;3.30;99.90
62154;DHT22;48140;45.486;9.226;2024-01-15T01:39:55;3.30;99.90
62154;DHT22;48140;45.486;9.226;2024-01-15T01:42:20;3.30;99.90
62154;DHT22;48140;45.486;9.226;2024-01-15T01:44:46;3.50;99.90
62154;DHT22;48140;45.486;9.226;2024-01-15T01:47:11;3.20;99.90
62154;DHT22;48140;45.486;9.226;2024-01-15T01:49:37;3.20;99.90
62154;DHT22;48140;45.486;9.226;2024-01-15T01:52:03;3.10;99.90
62154;DHT22;48140;45.486;9.226;2024-01-15T01:54:29;3.20;99.90
62154;DHT22;48140;45.486;9.226;2024-01-15T01:56:56;3.20;99.90
62154;DHT22;48140;45.486;9.226;2024-01-15T01:59:22;3.30;99.90
62154;DHT22;48140;45.486;9.226;2024-01-15T02:01:49;3.30;99.90
62154;DHT22;48140;45.486;9.226;2024-01-15T02:04:14;3.40;99.90
62154;DHT22;48140;45.486;9.226;2024-01-15T02:06:40;3.50;99.90
62154;DHT22;48140;45.486;9.226;2024-01-15T02:09:06;3.40;99.90
62154;DHT22;48140;45.486;9.226;2024-01-15T02:11:33;3.50;99.90
62154;DHT22;48140;45.486;9.226;2024-01-15T02:13:58;3.50;99.90
62154;DHT22;48140;45.486;9.226;2024-01-15T02:16:24;3.40;99.90
62154;DHT22;48140;45.486;9.226;2024-01-15T02:18:49;3.40;99.90
62154;DHT22;48140;45.486;9.226;2024-01-15T02:21:15;3.40;99.90
62154;DHT22;48140;45.486;9.226;2024-01-15T02:23:40;3.40;99.90
62154;DHT22;48140;45.486;9.226;2024-01-15T02:26:06;3.40;99.90
62154;DHT22;48140;45.486;9.226;2024-01-15T02:28:32;3.40;99.90
62154;DHT22;48140;45.486;9.226;2024-01-15T02:30:58;3.40;99.90
62154;DHT22;48140;45.486;9.226;2024-01-15T02:33:23;3.40;99.90
62154;DHT22;48140;45.486;9.226;2024-01-15T02:35:49;3.50;99.90
62154;DHT22;48140;45.486;9.226;2024-01-15T02:38:15;3.40;99.90
62154;DHT22;48140;45.486;9.226;2024-01-15T02:40:41;3.50;99.90
62154;DHT22;48140;45.486;9.226;2024-01-15T02:43:06;3.40;99.90
62154;DHT22;48140;45.486;9.226;2024-01-15T02:45:32;3.40;99.90
62154;DHT22;48140;45.486;9.226;2024-01-15T02:47:57;3.50;99.90
62154;DHT22;48140;45.486;9.226;2024-01-15T02:50:23;3.40;99.90
62154;DHT22;48140;45.486;9.226;2024-01-15T02:52:48;3.50;99.90
62154;DHT22;48140;45.486;9.226;2024-01-15T02:55:14;3.50;99.90
62154;DHT22;48140;45.486;9.226;2024-01-15T02:57:39;3.40;99.90
62154;DHT22;48140;45.486;9.226;2024-01-15T03:00:05;3.40;99.90
62154;DHT22;48140;45.486;9.226;2024-01-15T03:02:32;3.40;99.90
62154;DHT22;48140;45.486;9.226;2024-01-15T03:04:58;3.50;99.90
62154;DHT22;48140;45.486;9.226;2024-01-15T03:07:23;3.30;99.90
62154;DHT22;48140;45.486;9.226;2024-01-15T03:09:49;3.30;99.90
62154;DHT22;48140;45.486;9.226;2024-01-15T03:12:15;3.30;99.90
62154;DHT22;48140;45.486;9.226;2024-01-15T03:14:40;3.40;99.90
62154;DHT22;48140;45.486;9.226;2024-01-15T03:17:06;3.40;99.90
62154;DHT22;48140;45.486;9.226;2024-01-15T03:19:34;3.40;99.90
62154;DHT22;48140;45.486;9.226;2024-01-15T03:22:00;3.40;99.90
62154;DHT22;48140;45.486;9.226;2024-01-15T03:24:27;3.40;99.90
62154;DHT22;48140;45.486;9.226;2024-01-15T03:26:53;3.40;99.90
62154;DHT22;48140;45.486;9.226;2024-01-15T03:29:19;3.40;99.90
62154;DHT22;48140;45.486;9.226;2024-01-15T03:31:44;3.40;99.90
62154;DHT22;48140;45.486;9.226;2024-01-15T03:34:10;3.40;99.90
62154;DHT22;48140;45.486;9.226;2024-01-15T03:36:35;3.40;99.90
62154;DHT22;48140;45.486;9.226;2024-01-15T03:39:01;3.40;99.90
62154;DHT22;48140;45.486;9.226;2024-01-15T03:41:26;3.40;99.90
62154;DHT22;48140;45.486;9.226;2024-01-15T03:43:52;3.40;99.90
62154;DHT22;48140;45.486;9.226;2024-01-15T03:46:17;3.40;99.90
62154;DHT22;48140;45.486;9.226;2024-01-15T03:48:42;3.50;99.90
62154;DHT22;48140;45.486;9.226;2024-01-15T03:51:08;3.50;99.90
62154;DHT22;48140;45.486;9.226;2024-01-15T03:53:34;3.60;99.90
62154;DHT22;48140;45.486;9.226;2024-01-15T03:55:59;3.50;99.90
62154;DHT22;48140;45.486;9.226;2024-01-15T03:58:24;3.60;99.90
62154;DHT22;48140;45.486;9.226;2024-01-15T04:00:50;3.50;99.90
62154;DHT22;48140;45.486;9.226;2024-01-15T04:03:15;3.50;99.90
62154;DHT22;48140;45.486;9.226;2024-01-15T04:05:41;3.50;99.90
62154;DHT22;48140;45.486;9.226;2024-01-15T04:08:07;3.50;99.90
62154;DHT22;48140;45.486;9.226;2024-01-15T04:10:33;3.40;99.90
62154;DHT22;48140;45.486;9.226;2024-01-15T04:12:58;3.40;99.90
62154;DHT22;48140;45.486;9.226;2024-01-15T04:15:25;3.30;99.90
62154;DHT22;48140;45.486;9.226;2024-01-15T04:17:50;3.40;99.90
62154;DHT22;48140;45.486;9.226;2024-01-15T04:20:15;3.30;99.90
62154;DHT22;48140;45.486;9.226;2024-01-15T04:22:41;3.30;99.90
62154;DHT22;48140;45.486;9.226;2024-01-15T04:25:07;3.30;99.90
62154;DHT22;48140;45.486;9.226;2024-01-15T04:27:32;3.30;99.90
62154;DHT22;48140;45.486;9.226;2024-01-15T04:29:58;3.30;99.90
62154;DHT22;48140;45.486;9.226;2024-01-15T04:32:23;3.20;99.90
62154;DHT22;48140;45.486;9.226;2024-01-15T04:34:48;3.20;99.90
62154;DHT22;48140;45.486;9.226;2024-01-15T04:37:14;3.10;99.90
62154;DHT22;48140;45.486;9.226;2024-01-15T04:39:39;3.10;99.90
62154;DHT22;48140;45.486;9.226;2024-01-15T04:42:05;3.00;99.90
62154;DHT22;48140;45.486;9.226;2024-01-15T04:44:30;3.10;99.90
62154;DHT22;48140;45.486;9.226;2024-01-15T04:46:56;3.10;99.90
62154;DHT22;48140;45.486;9.226;2024-01-15T04:49:21;3.10;99.90
62154;DHT22;48140;45.486;9.226;2024-01-15T04:51:47;3.10;99.90
62154;DHT22;48140;45.486;9.226;2024-01-15T04:54:12;3.10;99.90
62154;DHT22;48140;45.486;9.226;2024-01-15T04:56:43;3.10;99.90
62154;DHT22;48140;45.486;9.226;2024-01-15T04:59:08;3.00;99.90
62154;DHT22;48140;45.486;9.226;2024-01-15T05:01:34;3.00;99.90
62154;DHT22;48140;45.486;9.226;2024-01-15T05:03:59;3.10;99.90
62154;DHT22;48140;45.486;9.226;2024-01-15T05:06:25;3.10;99.90
62154;DHT22;48140;45.486;9.226;2024-01-15T05:08:50;3.10;99.90
62154;DHT22;48140;45.486;9.226;2024-01-15T05:11:16;3.10;99.90
62154;DHT22;48140;45.486;9.226;2024-01-15T05:13:41;3.10;99.90
62154;DHT22;48140;45.486;9.226;2024-01-15T05:16:07;3.20;99.90
62154;DHT22;48140;45.486;9.226;2024-01-15T05:18:32;3.10;99.90
62154;DHT22;48140;45.486;9.226;2024-01-15T05:20:58;3.20;99.90
62154;DHT22;48140;45.486;9.226;2024-01-15T05:23:23;3.20;99.90
62154;DHT22;48140;45.486;9.226;2024-01-15T05:25:49;3.20;99.90
62154;DHT22;48140;45.486;9.226;2024-01-15T05:28:14;3.20;99.90
62154;DHT22;48140;45.486;9.226;2024-01-15T05:30:40;3.20;99.90
62154;DHT22;48140;45.486;9.226;2024-01-15T05:33:05;3.10;99.90
62154;DHT22;48140;45.486;9.226;2024-01-15T05:35:33;3.10;99.90
62154;DHT22;48140;45.486;9.226;2024-01-15T05:37:58;3.10;99.90
62154;DHT22;48140;45.486;9.226;2024-01-15T05:40:24;3.10;99.90
62154;DHT22;48140;45.486;9.226;2024-01-15T05:42:49;3.20;99.90
62154;DHT22;48140;45.486;9.226;2024-01-15T05:45:15;3.10;99.90
62154;DHT22;48140;45.486;9.226;2024-01-15T05:47:40;3.10;99.90
62154;DHT22;48140;45.486;9.226;2024-01-15T05:50:06;3.10;99.90
62154;DHT22;48140;45.486;9.226;2024-01-15T05:52:32;3.00;99.90
62154;DHT22;48140;45.486;9.226;2024-01-15T05:54:57;3.10;99.90
62154;DHT22;48140;45.486;9.226;2024-01-15T05:57:23;3.10;99.90
62154;DHT22;48140;45.486;9.226;2024-01-15T05:59:49;3.00;99.90
62154;DHT22;48140;45.486;9.226;2024-01-15T06:02:14;2.90;99.90
62154;DHT22;48140;45.486;9.226;2024-01-15T06:04:40;2.90;99.90
62154;DHT22;48140;45.486;9.226;2024-01-15T06:07:06;2.80;99.90
62154;DHT22;48140;45.486;9.226;2024-01-15T06:09:31;2.90;99.90
62154;DHT22;48140;45.486;9.226;2024-01-15T06:11:57;2.80;99.90
62154;DHT22;48140;45.486;9.226;2024-01-15T06:14:22;2.80;99.90
62154;DHT22;48140;45.486;9.226;2024-01-15T06:16:48;2.80;99.90
62154;DHT22;48140;45.486;9.226;2024-01-15T06:19:14;2.80;99.90
62154;DHT22;48140;45.486;9.226;2024-01-15T06:21:40;2.80;99.90
62154;DHT22;48140;45.486;9.226;2024-01-15T06:24:05;2.80;99.90
62154;DHT22;48140;45.486;9.226;2024-01-15T06:26:31;2.80;99.90
62154;DHT22;48140;45.486;9.226;2024-01-15T06:28:56;2.80;99.90
62154;DHT22;48140;45.486;9.226;2024-01-15T06:31:22;2.80;99.90
62154;DHT22;48140;45.486;9.226;2024-01-15T06:33:47;2.80;99.90
62154;DHT22;48140;45.486;9.226;2024-01-15T06:36:14;2.70;99.90
62154;DHT22;48140;45.486;9.226;2024-01-15T06:38:42;2.80;99.90
62154;DHT22;48140;45.486;9.226;2024-01-15T06:41:08;2.70;99.90
62154;DHT22;48140;45.486;9.226;2024-01-15T06:43:33;2.90;99.90
62154;DHT22;48140;45.486;9.226;2024-01-15T06:45:59;2.90;99.90
62154;DHT22;48140;45.486;9.226;2024-01-15T06:48:25;2.90;99.90
62154;DHT22;48140;45.486;9.226;2024-01-15T06:50:50;3.30;99.90
62154;DHT22;48140;45.486;9.226;2024-01-15T06:53:16;2.80;99.90
62154;DHT22;48140;45.486;9.226;2024-01-15T06:55:41;2.90;99.90
62154;DHT22;48140;45.486;9.226;2024-01-15T06:58:07;2.80;99.90
62154;DHT22;48140;45.486;9.226;2024-01-15T07:00:32;2.90;99.90
62154;DHT22;48140;45.486;9.226;2024-01-15T07:02:58;3.00;99.90
62154;DHT22;48140;45.486;9.226;2024-01-15T07:05:24;2.90;99.90
62154;DHT22;48140;45.486;9.226;2024-01-15T07:07:49;3.00;99.90
62154;DHT22;48140;45.486;9.226;2024-01-15T07:10:16;2.90;99.90
62154;DHT22;48140;45.486;9.226;2024-01-15T07:12:42;2.90;99.90
62154;DHT22;48140;45.486;9.226;2024-01-15T07:15:08;3.00;99.90
62154;DHT22;48140;45.486;9.226;2024-01-15T07:17:34;3.00;99.90
62154;DHT22;48140;45.486;9.226;2024-01-15T07:19:59;3.00;99.90
62154;DHT22;48140;45.486;9.226;2024-01-15T07:22:25;3.00;99.90
62154;DHT22;48140;45.486;9.226;2024-01-15T07:24:51;3.00;99.90
62154;DHT22;48140;45.486;9.226;2024-01-15T07:27:16;3.00;99.90
62154;DHT22;48140;45.486;9.226;2024-01-15T07:29:41;3.10;99.90
62154;DHT22;48140;45.486;9.226;2024-01-15T07:32:08;3.10;99.90
62154;DHT22;48140;45.486;9.226;2024-01-15T07:34:34;3.10;99.90
62154;DHT22;48140;45.486;9.226;2024-01-15T07:36:59;3.10;99.90
62154;DHT22;48140;45.486;9.226;2024-01-15T07:39:25;3.00;99.90
62154;DHT22;48140;45.486;9.226;2024-01-15T07:41:51;3.00;99.90
62154;DHT22;48140;45.486;9.226;2024-01-15T07:44:16;3.00;99.90
62154;DHT22;48140;45.486;9.226;2024-01-15T07:46:45;3.00;99.90
62154;DHT22;48140;45.486;9.226;2024-01-15T07:49:11;2.90;99.90
62154;DHT22;48140;45.486;9.226;2024-01-15T07:51:37;2.90;99.90
62154;DHT22;48140;45.486;9.226;2024-01-15T07:54:05;3.60;99.90
62154;DHT22;48140;45.486;9.226;2024-01-15T07:56:30;2.90;99.90
62154;DHT22;48140;45.486;9.226;2024-01-15T07:58:56;3.30;99.90
62154;DHT22;48140;45.486;9.226;2024-01-15T08:01:21;3.10;99.90
62154;DHT22;48140;45.486;9.226;2024-01-15T08:03:47;3.20;99.90
62154;DHT22;48140;45.486;9.226;2024-01-15T08:06:13;3.20;99.90
62154;DHT22;48140;45.486;9.226;2024-01-15T08:08:38;3.80;99.90
62154;DHT22;48140;45.486;9.226;2024-01-15T08:11:04;3.30;99.90
62154;DHT22;48140;45.486;9.226;2024-01-15T08:13:30;3.30;99.90
62154;DHT22;48140;45.486;9.226;2024-01-15T08:15:56;3.30;99.90
62154;DHT22;48140;45.486;9.226;2024-01-15T08:18:21;3.40;99.90
62154;DHT22;48140;45.486;9.226;2024-01-15T08:20:47;3.50;99.90
62154;DHT22;48140;45.486;9.226;2024-01-15T08:23:12;3.50;99.90
62154;DHT22;48140;45.486;9.226;2024-01-15T08:25:38;3.50;99.90
62154;DHT22;48140;45.486;9.226;2024-01-15T08:28:03;3.80;99.90
62154;DHT22;48140;45.486;9.226;2024-01-15T08:30:29;3.60;99.90
62154;DHT22;48140;45.486;9.226;2024-01-15T08:32:55;3.70;99.90
62154;DHT22;48140;45.486;9.226;2024-01-15T08:35:20;3.70;99.90
62154;DHT22;48140;45.486;9.226;2024-01-15T08:37:50;3.70;99.90
62154;DHT22;48140;45.486;9.226;2024-01-15T08:40:16;3.80;99.90
62154;DHT22;48140;45.486;9.226;2024-01-15T08:42:42;3.80;99.90
62154;DHT22;48140;45.486;9.226;2024-01-15T08:45:08;3.90;99.90
62154;DHT22;48140;45.486;9.226;2024-01-15T08:47:34;3.90;99.90
62154;DHT22;48140;45.486;9.226;2024-01-15T08:49:59;3.90;99.90
62154;DHT22;48140;45.486;9.226;2024-01-15T08:52:25;4.00;99.90
62154;DHT22;48140;45.486;9.226;2024-01-15T08:54:50;3.90;99.90
62154;DHT22;48140;45.486;9.226;2024-01-15T08:57:16;3.90;99.90
62154;DHT22;48140;45.486;9.226;2024-01-15T08:59:42;4.10;99.90
62154;DHT22;48140;45.486;9.226;2024-01-15T09:02:07;4.30;99.90
62154;DHT22;48140;45.486;9.226;2024-01-15T09:04:33;4.40;99.90
62154;DHT22;48140;45.486;9.226;2024-01-15T09:06:59;4.20;99.90
62154;DHT22;48140;45.486;9.226;2024-01-15T09:09:24;4.10;99.90
62154;DHT22;48140;45.486;9.226;2024-01-15T09:11:51;4.30;99.90
62154;DHT22;48140;45.486;9.226;2024-01-15T09:14:16;4.40;99.90
62154;DHT22;48140;45.486;9.226;2024-01-15T09:16:42;4.70;99.90
62154;DHT22;48140;45.486;9.226;2024-01-15T09:19:07;4.60;99.90
62154;DHT22;48140;45.486;9.226;2024-01-15T09:21:33;4.70;99.90
62154;DHT22;48140;45.486;9.226;2024-01-15T09:23:58;4.80;99.90
62154;DHT22;48140;45.486;9.226;2024-01-15T09:26:24;5.00;99.90
62154;DHT22;48140;45.486;9.226;2024-01-15T09:28:49;5.50;99.90
62154;DHT22;48140;45.486;9.226;2024-01-15T09:31:15;5.70;99.90
62154;DHT22;48140;45.486;9.226;2024-01-15T09:33:42;6.00;99.90
62154;DHT22;48140;45.486;9.226;2024-01-15T09:36:08;6.40;99.90
62154;DHT22;48140;45.486;9.226;2024-01-15T09:38:34;6.90;99.90
62154;DHT22;48140;45.486;9.226;2024-01-15T09:41:00;7.40;99.90
62154;DHT22;48140;45.486;9.226;2024-01-15T09:43:25;8.00;99.50
62154;DHT22;48140;45.486;9.226;2024-01-15T09:45:51;8.40;97.60
62154;DHT22;48140;45.486;9.226;2024-01-15T09:48:18;8.70;96.00
62154;DHT22;48140;45.486;9.226;2024-01-15T09:50:43;8.50;94.90
62154;DHT22;48140;45.486;9.226;2024-01-15T09:53:09;8.70;95.80
62154;DHT22;48140;45.486;9.226;2024-01-15T09:55:38;8.80;94.20
62154;DHT22;48140;45.486;9.226;2024-01-15T09:58:03;9.00;94.30
62154;DHT22;48140;45.486;9.226;2024-01-15T10:00:29;8.60;93.90
62154;DHT22;48140;45.486;9.226;2024-01-15T10:02:57;8.50;95.60
62154;DHT22;48140;45.486;9.226;2024-01-15T10:05:24;9.10;93.90
62154;DHT22;48140;45.486;9.226;2024-01-15T10:07:50;9.40;92.90
62154;DHT22;48140;45.486;9.226;2024-01-15T10:10:16;9.80;90.90
62154;DHT22;48140;45.486;9.226;2024-01-15T10:12:42;10.10;90.10
62154;DHT22;48140;45.486;9.226;2024-01-15T10:15:11;10.10;89.00
62154;DHT22;48140;45.486;9.226;2024-01-15T10:17:37;10.50;86.20
62154;DHT22;48140;45.486;9.226;2024-01-15T10:20:07;10.60;82.50
62154;DHT22;48140;45.486;9.226;2024-01-15T10:22:33;10.40;82.70
62154;DHT22;48140;45.486;9.226;2024-01-15T10:24:58;10.50;82.50
62154;DHT22;48140;45.486;9.226;2024-01-15T10:27:24;10.70;81.10
62154;DHT22;48140;45.486;9.226;2024-01-15T10:29:49;10.70;81.10
62154;DHT22;48140;45.486;9.226;2024-01-15T10:32:15;11.20;78.50
62154;DHT22;48140;45.486;9.226;2024-01-15T10:34:40;11.10;78.80
62154;DHT22;48140;45.486;9.226;2024-01-15T10:37:09;11.50;76.20
62154;DHT22;48140;45.486;9.226;2024-01-15T10:39:35;11.40;73.40
62154;DHT22;48140;45.486;9.226;2024-01-15T10:42:01;11.50;73.50
62154;DHT22;48140;45.486;9.226;2024-01-15T10:44:28;11.60;73.50
62154;DHT22;48140;45.486;9.226;2024-01-15T10:46:54;11.90;71.40
62154;DHT22;48140;45.486;9.226;2024-01-15T10:49:21;12.30;68.70
62154;DHT22;48140;45.486;9.226;2024-01-15T10:51:46;11.80;70.00
62154;DHT22;48140;45.486;9.226;2024-01-15T10:54:12;12.10;69.10
62154;DHT22;48140;45.486;9.226;2024-01-15T10:56:38;12.40;67.10
62154;DHT22;48140;45.486;9.226;2024-01-15T10:59:04;12.50;66.10
62154;DHT22;48140;45.486;9.226;2024-01-15T11:01:30;12.60;65.50
62154;DHT22;48140;45.486;9.226;2024-01-15T11:03:56;12.40;65.10
62154;DHT22;48140;45.486;9.226;2024-01-15T11:06:23;12.40;64.00
62154;DHT22;48140;45.486;9.226;2024-01-15T11:08:49;13.10;61.90
62154;DHT22;48140;45.486;9.226;2024-01-15T11:11:16;13.30;60.40
62154;DHT22;48140;45.486;9.226;2024-01-15T11:13:41;13.10;61.10
62154;DHT22;48140;45.486;9.226;2024-01-15T11:16:10;13.40;59.10
62154;DHT22;48140;45.486;9.226;2024-01-15T11:18:38;13.60;58.90
62154;DHT22;48140;45.486;9.226;2024-01-15T11:23:52;13.30;57.90
62154;DHT22;48140;45.486;9.226;2024-01-15T11:28:53;13.90;56.20
62154;DHT22;48140;45.486;9.226;2024-01-15T11:31:19;13.50;56.50
62154;DHT22;48140;45.486;9.226;2024-01-15T11:33:48;13.90;54.80
62154;DHT22;48140;45.486;9.226;2024-01-15T11:36:14;14.00;55.90
62154;DHT22;48140;45.486;9.226;2024-01-15T11:38:39;14.10;55.00
62154;DHT22;48140;45.486;9.226;2024-01-15T11:41:13;13.80;55.20
62154;DHT22;48140;45.486;9.226;2024-01-15T11:43:40;14.10;54.40
62154;DHT22;48140;45.486;9.226;2024-01-15T11:46:05;14.20;53.20
62154;DHT22;48140;45.486;9.226;2024-01-15T11:48:40;14.40;53.40
62154;DHT22;48140;45.486;9.226;2024-01-15T11:51:07;14.80;50.80
62154;DHT22;48140;45.486;9.226;2024-01-15T11:53:36;15.20;50.10
62154;DHT22;48140;45.486;9.226;2024-01-15T11:56:06;14.80;50.70
62154;DHT22;48140;45.486;9.226;2024-01-15T11:58:37;15.10;50.80
62154;DHT22;48140;45.486;9.226;2024-01-15T12:01:02;14.90;51.00
62154;DHT22;48140;45.486;9.226;2024-01-15T12:03:28;15.40;49.80
62154;DHT22;48140;45.486;9.226;2024-01-15T12:05:57;15.60;48.10
62154;DHT22;48140;45.486;9.226;2024-01-15T12:08:25;15.50;47.90
62154;DHT22;48140;45.486;9.226;2024-01-15T12:10:51;15.40;48.30
62154;DHT22;48140;45.486;9.226;2024-01-15T12:13:17;16.00;47.30
62154;DHT22;48140;45.486;9.226;2024-01-15T12:15:43;16.20;46.60
62154;DHT22;48140;45.486;9.226;2024-01-15T12:18:11;16.40;46.30
62154;DHT22;48140;45.486;9.226;2024-01-15T12:20:37;16.20;46.70
62154;DHT22;48140;45.486;9.226;2024-01-15T12:23:02;16.00;46.90
62154;DHT22;48140;45.486;9.226;2024-01-15T12:25:35;16.50;46.10
62154;DHT22;48140;45.486;9.226;2024-01-15T12:28:01;16.20;46.90
62154;DHT22;48140;45.486;9.226;2024-01-15T12:30:27;16.00;46.80
62154;DHT22;48140;45.486;9.226;2024-01-15T12:32:52;16.10;46.20
62154;DHT22;48140;45.486;9.226;2024-01-15T12:35:18;16.70;45.80
62154;DHT22;48140;45.486;9.226;2024-01-15T12:37:44;16.70;45.70
62154;DHT22;48140;45.486;9.226;2024-01-15T12:40:11;16.70;44.70
62154;DHT22;48140;45.486;9.226;2024-01-15T12:42:37;16.50;45.00
62154;DHT22;48140;45.486;9.226;2024-01-15T12:45:04;16.50;46.20
62154;DHT22;48140;45.486;9.226;2024-01-15T12:47:30;16.50;45.50
62154;DHT22;48140;45.486;9.226;2024-01-15T12:49:57;17.30;44.70
62154;DHT22;48140;45.486;9.226;2024-01-15T12:52:22;17.50;44.60
62154;DHT22;48140;45.486;9.226;2024-01-15T12:54:48;17.70;43.70
62154;DHT22;48140;45.486;9.226;2024-01-15T12:57:14;17.50;43.50
62154;DHT22;48140;45.486;9.226;2024-01-15T12:59:39;17.60;43.50
62154;DHT22;48140;45.486;9.226;2024-01-15T13:02:05;17.90;43.70
62154;DHT22;48140;45.486;9.226;2024-01-15T13:04:36;17.70;42.90
62154;DHT22;48140;45.486;9.226;2024-01-15T13:07:02;18.00;43.10
62154;DHT22;48140;45.486;9.226;2024-01-15T13:09:28;18.10;42.90
62154;DHT22;48140;45.486;9.226;2024-01-15T13:11:55;17.80;43.30
62154;DHT22;48140;45.486;9.226;2024-01-15T13:14:20;18.40;42.10
62154;DHT22;48140;45.486;9.226;2024-01-15T13:16:46;18.10;42.00
62154;DHT22;48140;45.486;9.226;2024-01-15T13:19:12;18.00;42.70
62154;DHT22;48140;45.486;9.226;2024-01-15T13:21:41;18.00;42.60
62154;DHT22;48140;45.486;9.226;2024-01-15T13:24:06;18.00;42.50
62154;DHT22;48140;45.486;9.226;2024-01-15T13:26:32;18.00;42.80
62154;DHT22;48140;45.486;9.226;2024-01-15T13:28:59;17.80;43.00
62154;DHT22;48140;45.486;9.226;2024-01-15T13:31:25;16.80;44.40
62154;DHT22;48140;45.486;9.226;2024-01-15T13:33:50;17.20;45.00
62154;DHT22;48140;45.486;9.226;2024-01-15T13:36:16;17.10;44.80
62154;DHT22;48140;45.486;9.226;2024-01-15T13:38:41;17.30;44.50
62154;DHT22;48140;45.486;9.226;2024-01-15T13:41:07;17.50;43.10
62154;DHT22;48140;45.486;9.226;2024-01-15T13:43:33;17.60;43.50
62154;DHT22;48140;45.486;9.226;2024-01-15T13:45:59;17.60;43.50
62154;DHT22;48140;45.486;9.226;2024-01-15T13:48:25;17.40;43.60
62154;DHT22;48140;45.486;9.226;2024-01-15T13:50:51;17.60;44.30
62154;DHT22;48140;45.486;9.226;2024-01-15T13:53:17;18.00;42.80
62154;DHT22;48140;45.486;9.226;2024-01-15T13:55:44;18.00;42.80
62154;DHT22;48140;45.486;9.226;2024-01-15T13:58:10;17.70;43.50
62154;DHT22;48140;45.486;9.226;2024-01-15T14:00:35;18.50;42.70
62154;DHT22;48140;45.486;9.226;2024-01-15T14:03:01;18.20;42.60
62154;DHT22;48140;45.486;9.226;2024-01-15T14:05:27;17.90;43.10
62154;DHT22;48140;45.486;9.226;2024-01-15T14:07:52;18.20;42.50
62154;DHT22;48140;45.486;9.226;2024-01-15T14:10:18;18.50;42.10
62154;DHT22;48140;45.486;9.226;2024-01-15T14:12:43;18.40;41.80
62154;DHT22;48140;45.486;9.226;2024-01-15T14:15:09;18.20;42.50
62154;DHT22;48140;45.486;9.226;2024-01-15T14:17:34;18.30;42.70
62154;DHT22;48140;45.486;9.226;2024-01-15T14:20:00;18.40;42.30
62154;DHT22;48140;45.486;9.226;2024-01-15T14:22:26;18.80;41.30
62154;DHT22;48140;45.486;9.226;2024-01-15T14:24:51;18.00;42.80
62154;DHT22;48140;45.486;9.226;2024-01-15T14:27:17;17.80;43.60
62154;DHT22;48140;45.486;9.226;2024-01-15T14:29:42;17.80;43.70
62154;DHT22;48140;45.486;9.226;2024-01-15T14:32:08;17.70;43.80
62154;DHT22;48140;45.486;9.226;2024-01-15T14:34:33;17.40;45.00
62154;DHT22;48140;45.486;9.226;2024-01-15T14:37:02;17.70;43.70
62154;DHT22;48140;45.486;9.226;2024-01-15T14:39:28;17.90;43.50
62154;DHT22;48140;45.486;9.226;2024-01-15T14:41:53;17.80;43.90
62154;DHT22;48140;45.486;9.226;2024-01-15T14:44:19;16.80;45.70
62154;DHT22;48140;45.486;9.226;2024-01-15T14:46:44;17.40;44.90
62154;DHT22;48140;45.486;9.226;2024-01-15T14:49:11;17.20;45.20
62154;DHT22;48140;45.486;9.226;2024-01-15T14:51:36;17.40;44.30
62154;DHT22;48140;45.486;9.226;2024-01-15T14:54:02;17.50;44.20
62154;DHT22;48140;45.486;9.226;2024-01-15T14:56:27;17.40;44.40
62154;DHT22;48140;45.486;9.226;2024-01-15T14:58:54;17.20;45.00
62154;DHT22;48140;45.486;9.226;2024-01-15T15:01:19;16.90;45.70
62154;DHT22;48140;45.486;9.226;2024-01-15T15:03:45;16.70;46.10
62154;DHT22;48140;45.486;9.226;2024-01-15T15:06:10;16.90;46.20
62154;DHT22;48140;45.486;9.226;2024-01-15T15:08:37;16.40;46.50
62154;DHT22;48140;45.486;9.226;2024-01-15T15:11:03;16.00;47.60
62154;DHT22;48140;45.486;9.226;2024-01-15T15:13:29;16.20;47.50
62154;DHT22;48140;45.486;9.226;2024-01-15T15:15:54;16.70;46.80
62154;DHT22;48140;45.486;9.226;2024-01-15T15:18:20;16.40;47.40
62154;DHT22;48140;45.486;9.226;2024-01-15T15:20:47;16.50;47.00
62154;DHT22;48140;45.486;9.226;2024-01-15T15:23:13;16.20;47.40
62154;DHT22;48140;45.486;9.226;2024-01-15T15:25:38;16.20;47.70
62154;DHT22;48140;45.486;9.226;2024-01-15T15:28:04;15.80;48.90
62154;DHT22;48140;45.486;9.226;2024-01-15T15:30:30;16.00;48.60
62154;DHT22;48140;45.486;9.226;2024-01-15T15:32:56;15.70;48.90
62154;DHT22;48140;45.486;9.226;2024-01-15T15:35:22;15.60;49.20